Camp Guernsey Information

FAA: GUR - ICAO: KGUR

Camp Guernsey (Airport) Location

State Wyoming
County Platte
City Guernsey
Camp Guernsey (Airport) is 1 mile southeast of Guernsey, WY.
Latitude 42-15-35.1000N
Longitude 104-43-41.9000W
Elevation 4,401ft

Camp Guernsey METARs

METAR KGUR 260958Z AUTO 00000KT 10SM CLR 04/04 A3002 RMK AO2 SLP166 T00430040 $
Altimeter 30.02"
Temperature 4.3°C (39.7°F)
Wind 0° at 0KT
Clouds Skies are clear.
Visibility 10.0mi
Time observed: 2022-05-26T09:58:00Z

Camp Guernsey (Airport) Details

Status Operational
Activation September 1947
Ownership Military - Army
Usage Public
Chart CHEYENNE
ATC on-site Yes
Beacon schedule sunset-sunrise
Beacon color split clear green

Camp Guernsey (Airport) Contacts

Owner STATE OF WYO MIL DEPT
Owner address 5500 BISHOP BLVD., CHEYENNE, WY 82009-3320
Owner phone 307-772-5235
Manager GREGORY P MC CUE
Manager address 216 ROAD 6 NS, CODY, WY 82414
Manager phone 307-899-6147

Camp Guernsey Radio Frequencies

Camp Guernsey (Airport) Radio Frequencies

UNICOM N/A
Common traffic advisory frequency (CTAF) 126.2